Time;durP1;ratioP1;P1;durP2;ratioP2;P2;SDS_P1;SDS_P2;PMS_P1;PMS_P2;Temp;Humidity;BMP_temperature;BMP_pressure;BME280_temperature;BME280_humidity;BME280_pressure;Samples;Min_cycle;Max_cycle;Signal;HPM_P1;HPM_P2
2022/05/28 00:02:24;;;;;;;2.42;1.60;;;17.60;79.30;;;;;;5111991;28;20054;-66
2022/05/28 00:04:50;;;;;;;4.45;1.30;;;17.60;79.30;;;;;;5095798;28;20027;-64
2022/05/28 03:43:31;;;;;;;8.25;2.42;;;17.30;77.90;;;;;;5110755;28;20034;-65
2022/05/28 06:25:46;;;;;;;7.05;1.55;;;17.50;74.30;;;;;;5111946;28;20500;-66
2022/05/28 06:28:12;;;;;;;6.78;1.50;;;17.60;74.30;;;;;;5109433;28;20036;-66
2022/05/28 06:30:40;;;;;;;6.63;1.45;;;17.60;74.20;;;;;;5111507;28;20035;-66
2022/05/28 06:33:06;;;;;;;2.17;1.13;;;17.60;74.10;;;;;;5110790;28;20167;-66
2022/05/28 06:35:33;;;;;;;11.25;1.67;;;17.60;74.00;;;;;;5092691;28;20255;-66
2022/05/28 06:37:59;;;;;;;5.20;1.30;;;17.60;73.90;;;;;;5110239;28;20027;-66
2022/05/28 06:40:24;;;;;;;10.23;2.20;;;17.60;73.90;;;;;;5093136;28;20024;-66
2022/05/28 06:42:51;;;;;;;3.85;1.40;;;17.70;73.90;;;;;;5092626;28;20088;-66
2022/05/28 06:45:18;;;;;;;10.32;2.13;;;17.70;73.70;;;;;;5109995;28;20039;-66
2022/05/28 06:47:45;;;;;;;10.52;1.75;;;17.70;73.60;;;;;;5104827;28;20020;-67
2022/05/28 06:52:57;;;;;;;6.63;1.73;;;17.70;73.50;;;;;;5090460;28;20031;-67
2022/05/28 06:55:23;;;;;;;7.35;1.65;;;17.70;73.50;;;;;;5090269;28;20024;-66
2022/05/28 06:57:50;;;;;;;7.65;1.77;;;17.70;73.50;;;;;;5090159;28;20055;-66
2022/05/28 07:00:16;;;;;;;5.95;1.55;;;17.70;73.50;;;;;;5088419;28;20031;-67
2022/05/28 07:02:42;;;;;;;5.00;1.33;;;17.70;73.40;;;;;;5110659;28;20092;-66
2022/05/28 07:05:07;;;;;;;7.82;1.30;;;17.70;73.30;;;;;;5110540;28;20047;-66
2022/05/28 07:07:33;;;;;;;4.95;1.02;;;17.70;73.20;;;;;;5092406;28;20028;-66
2022/05/28 07:09:59;;;;;;;5.70;1.10;;;17.80;73.10;;;;;;5110028;28;20024;-66
2022/05/28 07:12:24;;;;;;;7.78;1.20;;;17.80;72.90;;;;;;5110258;28;20073;-66
2022/05/28 07:14:50;;;;;;;7.53;1.25;;;17.80;72.60;;;;;;5108426;28;20020;-67
2022/05/28 07:17:15;;;;;;;5.43;0.98;;;17.80;72.70;;;;;;5110739;28;20448;-66
2022/05/28 07:19:41;;;;;;;5.75;1.20;;;17.80;72.60;;;;;;5109811;28;20028;-65
2022/05/28 07:22:08;;;;;;;1.80;0.90;;;17.80;72.40;;;;;;5092278;28;20102;-67
2022/05/28 07:24:34;;;;;;;3.83;1.58;;;17.80;70.30;;;;;;5109391;28;20497;-66
2022/05/28 07:26:59;;;;;;;3.17;1.20;;;17.80;70.50;;;;;;5110095;28;20060;-67
2022/05/28 07:29:25;;;;;;;7.53;1.08;;;17.80;70.30;;;;;;5089746;28;20077;-67
2022/05/28 07:31:51;;;;;;;10.70;0.93;;;17.80;69.80;;;;;;5110737;28;20047;-67
2022/05/28 07:34:16;;;;;;;1.90;0.80;;;17.80;69.90;;;;;;5110496;28;20024;-66
2022/05/28 07:36:42;;;;;;;4.18;1.08;;;17.80;69.90;;;;;;5110480;28;20414;-67
2022/05/28 07:39:08;;;;;;;3.83;1.13;;;17.80;70.40;;;;;;5109323;28;20023;-66
2022/05/28 07:41:36;;;;;;;2.97;1.00;;;17.80;69.80;;;;;;5109992;28;20377;-67
2022/05/28 07:44:02;;;;;;;3.78;1.15;;;17.90;69.90;;;;;;5108643;28;20024;-66
2022/05/28 07:46:32;;;;;;;7.15;1.02;;;17.90;69.80;;;;;;5110207;28;20046;-66
2022/05/28 07:48:59;;;;;;;;;;;17.90;69.80;;;;;;5093989;28;20020;-67
2022/05/28 07:51:25;;;;;;;2.70;0.90;;;17.90;70.00;;;;;;5089625;28;19907;-66
2022/05/28 07:53:52;;;;;;;4.63;1.30;;;17.90;70.10;;;;;;5089519;28;20058;-66
2022/05/28 07:56:18;;;;;;;2.58;0.93;;;17.90;70.00;;;;;;5071416;28;20032;-67
2022/05/28 07:58:44;;;;;;;4.50;0.90;;;17.90;70.10;;;;;;5095564;28;20377;-67
2022/05/28 08:01:25;;;;;;;7.50;1.25;;;17.90;70.10;;;;;;5109728;28;20069;-66
2022/05/28 08:03:51;;;;;;;4.75;1.20;;;18.00;70.00;;;;;;5109987;28;20575;-66
2022/05/28 08:06:17;;;;;;;1.98;0.80;;;17.90;69.90;;;;;;5110170;28;20043;-67
2022/05/28 08:08:43;;;;;;;2.25;0.70;;;18.00;70.00;;;;;;5091115;28;20024;-66
2022/05/28 08:11:09;;;;;;;2.30;0.90;;;18.00;70.00;;;;;;5110117;28;20544;-66
2022/05/28 08:13:35;;;;;;;2.30;1.20;;;18.00;69.90;;;;;;5091668;28;20030;-67
2022/05/28 08:16:01;;;;;;;4.07;1.13;;;18.00;69.90;;;;;;5090687;28;20300;-65
2022/05/28 08:18:27;;;;;;;5.80;1.33;;;18.00;69.50;;;;;;5081527;28;20119;-66
2022/05/28 08:23:41;;;;;;;3.00;1.00;;;18.00;69.40;;;;;;5111197;28;20043;-66
2022/05/28 08:29:30;;;;;;;3.35;0.93;;;18.10;69.10;;;;;;5013407;28;20584;-66
2022/05/28 08:31:56;;;;;;;1.75;0.90;;;18.10;69.10;;;;;;5010175;28;20038;-66
2022/05/28 08:34:22;;;;;;;1.92;0.70;;;18.10;68.90;;;;;;5010905;28;20038;-66
2022/05/28 08:40:12;;;;;;;3.63;0.80;;;18.10;69.20;;;;;;5014216;28;20502;-66
2022/05/28 08:42:38;;;;;;;1.02;0.80;;;18.00;69.40;;;;;;5010806;28;20033;-66
2022/05/28 08:45:05;;;;;;;5.05;1.30;;;18.00;69.60;;;;;;5008642;28;20040;-65
2022/05/28 08:47:35;;;;;;;2.90;0.90;;;17.90;68.00;;;;;;4998188;28;20038;-66
2022/05/28 08:50:02;;;;;;;2.95;1.15;;;17.90;66.40;;;;;;5031121;28;20026;-65
2022/05/28 08:52:47;;;;;;;5.35;1.17;;;17.80;62.40;;;;;;5033725;28;20045;-65
2022/05/28 08:55:18;;;;;;;3.75;0.88;;;17.60;61.60;;;;;;5032670;28;20036;-65
2022/05/28 08:58:09;;;;;;;3.50;0.70;;;17.40;58.70;;;;;;5019752;28;20033;-66
2022/05/28 09:03:49;;;;;;;3.55;0.90;;;17.30;58.10;;;;;;5006697;28;19967;-66
2022/05/28 09:06:20;;;;;;;4.93;1.15;;;17.30;56.90;;;;;;5062001;28;20438;-65
2022/05/28 09:08:50;;;;;;;3.25;0.95;;;17.20;57.20;;;;;;5102938;28;20081;-66
2022/05/28 09:11:45;;;;;;;;;;;17.30;58.20;;;;;;5104732;28;20077;-66
2022/05/28 09:14:25;;;;;;;6.07;1.02;;;17.20;57.40;;;;;;5081446;28;20174;-65
2022/05/28 09:16:59;;;;;;;3.63;1.15;;;17.10;56.30;;;;;;5113345;28;20145;-65
2022/05/28 09:19:31;;;;;;;1.38;0.70;;;17.00;56.90;;;;;;5093973;28;20032;-65
2022/05/28 09:21:56;;;;;;;3.58;1.02;;;17.20;57.80;;;;;;5074768;28;20103;-65
2022/05/28 09:24:25;;;;;;;1.35;1.00;;;17.30;56.80;;;;;;5094561;28;20099;-65
2022/05/28 09:27:12;;;;;;;3.78;1.65;;;17.20;54.80;;;;;;5094860;28;20024;-63
2022/05/28 09:29:56;;;;;;;2.88;0.90;;;17.20;56.20;;;;;;5095055;28;20150;-66
2022/05/28 09:33:00;;;;;;;5.43;1.30;;;17.40;57.70;;;;;;5094586;28;20032;-65
2022/05/28 09:39:06;;;;;;;34.88;5.95;;;17.50;57.30;;;;;;5092702;28;20401;-66
2022/05/28 09:42:00;;;;;;;20.55;4.97;;;17.40;56.20;;;;;;5090421;28;20032;-67
2022/05/28 09:44:41;;;;;;;13.73;7.13;;;17.40;55.70;;;;;;5073044;28;20474;-67
2022/05/28 09:47:12;;;;;;;20.95;3.42;;;17.40;55.90;;;;;;5111625;28;20031;-65
2022/05/28 09:49:51;;;;;;;29.58;7.22;;;17.40;55.30;;;;;;5111366;28;20024;-67
2022/05/28 09:52:21;;;;;;;23.33;4.10;;;17.50;55.70;;;;;;5112789;28;20047;-66
2022/05/28 09:54:47;;;;;;;39.83;4.95;;;17.50;55.90;;;;;;5112421;28;20020;-66
2022/05/28 09:57:25;;;;;;;9.02;2.70;;;17.60;56.20;;;;;;5093374;28;20492;-70
2022/05/28 09:59:55;;;;;;;19.35;7.60;;;17.60;56.80;;;;;;5093049;28;20024;-61
2022/05/28 10:04:28;;;;;;;28.85;9.68;;;17.60;55.40;;;;;;5111582;28;20035;-60
2022/05/28 10:05:32;;;;;;;4.90;1.70;;;17.40;54.40;;;;;;5110254;28;20197;-60
2022/05/28 10:08:11;;;;;;;5.22;1.00;;;17.20;53.40;;;;;;5107117;28;20500;-70
2022/05/28 10:10:39;;;;;;;4.85;1.00;;;17.40;54.70;;;;;;5108064;28;20580;-69
2022/05/28 10:13:17;;;;;;;5.45;2.42;;;17.90;53.40;;;;;;5109506;28;20032;-69
2022/05/28 10:15:50;;;;;;;39.33;4.60;;;18.10;54.40;;;;;;5108094;28;20122;-69
2022/05/28 10:18:32;;;;;;;3.58;1.30;;;18.20;53.80;;;;;;5109016;28;20031;-69
2022/05/28 10:21:11;;;;;;;3.38;1.95;;;18.20;53.80;;;;;;5109913;28;20039;-70
2022/05/28 10:23:42;;;;;;;2.15;1.00;;;18.20;53.60;;;;;;5110146;28;20224;-69
2022/05/28 10:26:30;;;;;;;5.30;1.25;;;18.20;53.70;;;;;;5111252;28;20016;-70
2022/05/28 10:29:02;;;;;;;2.72;1.00;;;18.20;53.50;;;;;;5110287;28;20067;-69
2022/05/28 10:31:32;;;;;;;4.40;1.02;;;18.30;53.70;;;;;;5109170;28;20028;-70
2022/05/28 10:33:58;;;;;;;3.03;0.93;;;18.30;53.60;;;;;;5110906;28;20023;-68
2022/05/28 10:36:28;;;;;;;6.95;1.13;;;18.30;53.70;;;;;;5111083;28;20034;-70
2022/05/28 10:39:22;;;;;;;9.30;1.08;;;18.30;53.50;;;;;;5109987;28;20030;-70
2022/05/28 10:41:52;;;;;;;3.50;1.70;;;18.30;53.50;;;;;;5111042;28;20043;-69
2022/05/28 10:44:19;;;;;;;;;;;18.30;53.40;;;;;;5111656;28;20115;-69
2022/05/28 10:47:23;;;;;;;3.92;0.90;;;18.30;53.60;;;;;;5096361;28;19908;-70
2022/05/28 10:50:04;;;;;;;2.15;1.05;;;18.30;54.00;;;;;;5089547;28;20480;-69
2022/05/28 10:53:01;;;;;;;2.30;0.90;;;18.30;53.50;;;;;;5091017;28;20031;-69
2022/05/28 10:55:44;;;;;;;4.00;2.28;;;18.20;53.90;;;;;;5090383;28;20032;-69
2022/05/28 10:58:11;;;;;;;6.30;3.33;;;18.30;54.30;;;;;;5090494;28;20140;-71
2022/05/28 11:00:51;;;;;;;5.95;1.58;;;18.30;54.50;;;;;;5092518;28;20040;-69
2022/05/28 11:03:33;;;;;;;6.82;1.70;;;18.30;54.30;;;;;;5110953;28;20015;-69
2022/05/28 11:06:16;;;;;;;4.55;1.48;;;18.30;54.40;;;;;;5110123;28;20468;-71
2022/05/28 11:08:49;;;;;;;7.95;1.50;;;18.30;54.10;;;;;;5110340;28;20051;-71
2022/05/28 11:11:50;;;;;;;8.00;1.27;;;18.40;54.20;;;;;;5110259;28;20024;-69
2022/05/28 11:14:48;;;;;;;3.72;1.98;;;18.30;54.40;;;;;;5110561;28;20563;-69
2022/05/28 11:17:42;;;;;;;6.68;2.00;;;18.30;54.20;;;;;;5098458;28;20047;-69
2022/05/28 11:20:18;;;;;;;14.68;4.82;;;18.20;54.10;;;;;;5065307;28;20031;-70
2022/05/28 11:23:00;;;;;;;16.13;3.05;;;18.20;53.80;;;;;;5110204;28;20042;-70
2022/05/28 11:25:50;;;;;;;7.03;2.75;;;18.20;53.80;;;;;;5110457;28;20035;-71
2022/05/28 11:28:42;;;;;;;15.27;3.57;;;18.20;53.70;;;;;;5109805;28;20030;-70
2022/05/28 11:31:41;;;;;;;3.20;1.27;;;18.20;54.30;;;;;;5108707;28;20055;-71
2022/05/28 11:34:16;;;;;;;4.93;0.95;;;18.20;54.00;;;;;;5110504;28;20035;-71
2022/05/28 11:36:51;;;;;;;5.25;0.90;;;18.20;54.10;;;;;;5110537;28;20469;-71
2022/05/28 11:39:37;;;;;;;2.40;1.02;;;18.20;54.00;;;;;;5110063;28;20023;-71
2022/05/28 11:42:16;;;;;;;6.72;1.48;;;18.20;53.80;;;;;;5110176;28;20032;-71
2022/05/28 11:44:52;;;;;;;7.43;1.30;;;18.20;53.80;;;;;;5110249;28;20026;-71
2022/05/28 11:47:35;;;;;;;5.50;1.17;;;18.20;53.90;;;;;;5109120;28;20023;-71
2022/05/28 11:53:24;;;;;;;4.20;1.50;;;18.10;52.70;;;;;;5109390;28;20039;-70
2022/05/28 11:55:55;;;;;;;87.20;15.32;;;18.10;52.70;;;;;;5090692;28;20032;-68
2022/05/28 11:58:46;;;;;;;51.90;15.63;;;18.10;53.40;;;;;;5093949;28;20069;-70
2022/05/28 12:01:17;;;;;;;24.80;6.03;;;18.10;53.40;;;;;;5098439;28;20481;-70
2022/05/28 12:03:44;;;;;;;27.02;3.70;;;18.10;52.30;;;;;;5116933;28;20027;-71
2022/05/28 12:06:37;;;;;;;2.97;1.52;;;18.10;52.40;;;;;;5117244;28;20104;-72
2022/05/28 12:09:22;;;;;;;9.27;2.50;;;18.10;51.90;;;;;;5116450;28;20026;-72
2022/05/28 12:12:01;;;;;;;6.25;1.23;;;18.00;51.80;;;;;;5117129;28;20029;-73
2022/05/28 12:14:34;;;;;;;5.07;1.27;;;18.10;51.90;;;;;;5116802;28;20170;-72
2022/05/28 12:17:07;;;;;;;3.53;1.33;;;18.10;51.80;;;;;;5109351;28;20040;-73
2022/05/28 12:19:33;;;;;;;5.05;2.08;;;18.10;52.40;;;;;;5095699;28;20413;-74
2022/05/28 12:22:21;;;;;;;6.35;1.15;;;18.10;52.60;;;;;;5096534;28;20048;-72
2022/05/28 12:25:08;;;;;;;6.65;1.40;;;18.10;52.60;;;;;;5096439;28;20028;-72
2022/05/28 12:27:38;;;;;;;1.77;0.73;;;18.10;52.80;;;;;;5108253;28;20100;-70
2022/05/28 12:30:08;;;;;;;;;;;18.10;52.90;;;;;;5104499;28;20028;-70
2022/05/28 12:32:43;;;;;;;2.60;0.70;;;18.10;53.30;;;;;;5105538;28;19965;-70
2022/05/28 12:35:15;;;;;;;3.75;0.93;;;18.00;53.30;;;;;;5116573;28;20435;-70
2022/05/28 12:38:08;;;;;;;4.00;1.00;;;18.00;53.30;;;;;;5116650;28;20476;-70
2022/05/28 12:40:39;;;;;;;4.10;0.93;;;18.00;52.50;;;;;;5116437;28;20058;-70
2022/05/28 12:43:19;;;;;;;2.95;1.10;;;18.00;52.60;;;;;;5117135;28;20031;-70
2022/05/28 12:45:47;;;;;;;5.13;1.02;;;18.00;52.40;;;;;;5116450;28;20023;-70
2022/05/28 12:48:34;;;;;;;2.50;1.17;;;18.00;52.60;;;;;;5115742;27;20039;-70
2022/05/28 12:51:21;;;;;;;5.68;1.02;;;18.00;53.10;;;;;;5116024;28;20248;-70
2022/05/28 12:53:48;;;;;;;6.22;1.55;;;18.10;53.40;;;;;;5112405;28;20031;-70
2022/05/28 12:56:42;;;;;;;4.18;1.00;;;18.10;53.70;;;;;;5115615;28;20088;-70
2022/05/28 12:59:23;;;;;;;10.25;1.20;;;18.10;54.10;;;;;;5116426;28;20063;-70
2022/05/28 13:02:03;;;;;;;4.20;0.90;;;18.10;53.70;;;;;;5115392;28;20020;-71
2022/05/28 13:04:42;;;;;;;3.03;0.90;;;18.10;53.60;;;;;;5096149;28;20020;-70
2022/05/28 13:07:27;;;;;;;1.92;1.00;;;18.10;52.10;;;;;;5095499;28;20553;-70
2022/05/28 13:10:04;;;;;;;4.32;1.13;;;18.10;52.20;;;;;;5092515;28;20036;-70
2022/05/28 13:12:42;;;;;;;4.38;1.20;;;18.00;52.00;;;;;;5092378;28;20472;-70
2022/05/28 14:13:14;;;;;;;3.30;1.00;;;18.10;55.30;;;;;;5029843;28;20056;-67
2022/05/28 14:32:43;;;;;;;6.50;1.00;;;17.90;51.70;;;;;;5114609;27;20480;-69
2022/05/28 14:35:43;;;;;;;0.85;0.75;;;17.90;51.50;;;;;;5078355;28;20079;-68
2022/05/28 14:38:11;;;;;;;4.95;0.98;;;17.90;50.40;;;;;;4969225;28;20125;-69
2022/05/28 14:40:45;;;;;;;2.33;0.90;;;17.90;50.40;;;;;;4970033;28;20030;-71
2022/05/28 14:43:20;;;;;;;2.55;1.17;;;17.90;50.00;;;;;;4970234;28;20046;-71
2022/05/28 14:45:46;;;;;;;1.42;0.90;;;17.90;50.40;;;;;;4985162;28;20494;-71
2022/05/28 14:48:24;;;;;;;4.35;0.98;;;17.90;50.20;;;;;;4982036;28;20060;-71
2022/05/28 14:50:53;;;;;;;5.25;0.90;;;17.90;50.10;;;;;;4969495;28;20081;-71
2022/05/28 14:53:29;;;;;;;2.90;0.98;;;18.00;50.40;;;;;;4978521;28;20062;-71
2022/05/28 14:55:57;;;;;;;1.38;0.77;;;17.90;49.70;;;;;;4988423;28;20034;-71
2022/05/28 14:58:24;;;;;;;3.53;0.95;;;17.90;50.40;;;;;;4971694;28;20030;-71
2022/05/28 15:01:03;;;;;;;2.58;1.05;;;18.00;50.60;;;;;;4972080;28;20046;-71
2022/05/28 15:03:31;;;;;;;4.05;1.13;;;18.00;51.20;;;;;;4981801;28;20026;-71
2022/05/28 15:06:27;;;;;;;5.45;0.93;;;18.00;50.60;;;;;;4953263;28;20053;-70
2022/05/28 15:08:56;;;;;;;1.45;0.75;;;17.90;50.20;;;;;;4968274;28;20030;-71
2022/05/28 15:11:33;;;;;;;4.55;1.38;;;17.90;50.20;;;;;;4968879;28;20050;-70
2022/05/28 15:14:05;;;;;;;5.63;0.88;;;17.90;49.90;;;;;;5029843;28;20044;-71
2022/05/28 15:16:31;;;;;;;2.15;0.82;;;17.90;49.30;;;;;;5070329;28;20032;-70
2022/05/28 15:18:56;;;;;;;3.47;1.00;;;17.90;49.30;;;;;;5077067;28;20036;-70
2022/05/28 15:21:22;;;;;;;1.13;0.90;;;17.90;49.10;;;;;;5090301;28;20026;-70
2022/05/28 15:23:48;;;;;;;3.33;1.42;;;17.90;50.40;;;;;;5090496;28;20024;-70
2022/05/28 15:26:13;;;;;;;8.18;1.25;;;17.90;49.70;;;;;;5087665;28;20028;-70
2022/05/28 15:28:39;;;;;;;2.95;1.02;;;18.00;49.90;;;;;;5088962;28;20473;-71
2022/05/28 15:31:04;;;;;;;7.82;1.27;;;18.00;50.40;;;;;;5090071;28;20020;-71
2022/05/28 15:33:30;;;;;;;2.60;0.95;;;18.00;50.30;;;;;;5084875;28;20070;-71
2022/05/28 15:38:41;;;;;;;6.95;2.60;;;17.90;50.90;;;;;;5069876;28;20043;-70
2022/05/28 15:41:14;;;;;;;5.20;2.03;;;17.90;50.70;;;;;;5069648;28;20174;-71
2022/05/28 15:43:40;;;;;;;2.03;1.35;;;17.90;50.70;;;;;;5069538;28;20469;-71
2022/05/28 15:46:09;;;;;;;7.13;1.42;;;17.90;50.70;;;;;;5069850;28;20021;-70
2022/05/28 15:48:36;;;;;;;4.53;1.30;;;17.90;51.20;;;;;;5076667;28;20029;-71
2022/05/28 15:51:02;;;;;;;5.57;1.67;;;17.90;51.10;;;;;;5069694;28;20401;-71
2022/05/28 15:53:28;;;;;;;6.55;1.02;;;17.90;51.10;;;;;;5068751;28;20025;-71
2022/05/28 15:55:54;;;;;;;3.50;0.90;;;17.90;51.40;;;;;;5069309;28;20032;-72
2022/05/28 15:58:29;;;;;;;7.38;0.95;;;17.80;51.10;;;;;;5069644;28;20012;-70
2022/05/28 16:00:56;;;;;;;2.20;1.05;;;17.80;50.60;;;;;;5069723;28;20055;-69
2022/05/28 16:03:22;;;;;;;4.57;0.77;;;17.90;50.20;;;;;;5051150;28;20032;-73
2022/05/28 16:05:53;;;;;;;2.47;0.95;;;17.90;50.30;;;;;;5070053;28;20416;-69
2022/05/28 16:08:23;;;;;;;4.32;1.00;;;17.90;50.70;;;;;;5068920;28;20044;-70
2022/05/28 16:10:52;;;;;;;3.25;0.90;;;17.90;50.60;;;;;;5069198;28;20033;-70
2022/05/28 16:13:18;;;;;;;2.53;0.80;;;17.90;50.00;;;;;;5069284;28;20029;-68
2022/05/28 16:20:04;;;;;;;4.68;0.75;;;17.80;49.50;;;;;;4971992;28;20105;-68
2022/05/28 16:56:43;;;;;;;6.50;2.10;;;17.70;49.70;;;;;;5004313;28;20546;-68
2022/05/28 17:02:31;;;;;;;0.57;0.50;;;17.70;50.20;;;;;;5114417;28;20065;-68
2022/05/28 17:05:06;;;;;;;1.23;0.80;;;17.70;49.70;;;;;;5098481;28;20061;-68
2022/05/28 17:07:31;;;;;;;1.50;0.82;;;17.70;48.60;;;;;;5095116;28;20361;-68
2022/05/28 17:09:57;;;;;;;1.80;0.95;;;17.70;48.80;;;;;;5111941;28;20024;-68
2022/05/28 17:12:27;;;;;;;3.17;1.02;;;17.60;48.50;;;;;;5113255;28;20020;-68
2022/05/28 17:14:53;;;;;;;2.63;0.95;;;17.60;48.60;;;;;;5112605;28;20024;-68
2022/05/28 17:17:19;;;;;;;1.10;0.80;;;17.60;48.10;;;;;;5111902;28;20035;-68
2022/05/28 17:19:44;;;;;;;5.35;1.13;;;17.60;48.20;;;;;;5110811;28;20433;-68
2022/05/28 17:22:11;;;;;;;5.20;0.90;;;17.70;48.70;;;;;;5113238;28;20639;-68
2022/05/28 17:24:38;;;;;;;1.50;0.90;;;17.60;48.60;;;;;;5112784;28;20020;-68
2022/05/28 17:27:04;;;;;;;1.13;0.90;;;17.60;48.40;;;;;;5112791;28;20019;-68
2022/05/28 17:29:35;;;;;;;3.15;0.88;;;17.60;48.20;;;;;;5093222;28;20110;-68
2022/05/28 17:32:05;;;;;;;4.13;1.15;;;17.60;48.10;;;;;;5111847;28;20034;-70
2022/05/28 17:34:31;;;;;;;3.00;1.10;;;17.60;48.30;;;;;;5108372;28;20042;-69
2022/05/28 17:36:58;;;;;;;2.70;1.05;;;17.60;48.60;;;;;;5100248;28;20035;-70
2022/05/28 17:39:23;;;;;;;3.70;1.10;;;17.60;48.70;;;;;;5111511;28;20220;-69
2022/05/28 17:41:50;;;;;;;2.67;1.13;;;17.50;48.70;;;;;;5111551;28;20027;-69
2022/05/28 17:44:16;;;;;;;2.78;0.95;;;17.60;48.70;;;;;;5112057;28;20027;-69
2022/05/28 17:46:42;;;;;;;4.50;1.10;;;17.50;49.20;;;;;;5111615;28;20027;-69
2022/05/28 17:49:09;;;;;;;3.40;1.20;;;17.60;50.20;;;;;;5129018;27;20511;-69
2022/05/28 17:51:36;;;;;;;3.80;1.23;;;17.60;50.60;;;;;;5111039;28;20052;-69
2022/05/28 17:54:04;;;;;;;2.20;0.98;;;17.50;49.90;;;;;;5111758;28;20024;-68
2022/05/28 17:56:29;;;;;;;4.07;1.13;;;17.50;50.80;;;;;;5111030;28;20036;-70
2022/05/28 17:58:55;;;;;;;2.03;1.17;;;17.50;52.00;;;;;;5111548;28;20024;-71
2022/05/28 19:08:29;;;;;;;3.00;1.73;;;17.50;53.70;;;;;;5112097;22;20442;-62
2022/05/28 19:10:55;;;;;;;3.45;1.50;;;17.60;53.80;;;;;;5090742;28;20032;-62
2022/05/28 19:13:21;;;;;;;4.50;1.67;;;17.50;53.90;;;;;;5089812;28;20050;-63
2022/05/28 19:15:47;;;;;;;3.05;1.35;;;17.50;54.00;;;;;;5090540;28;20020;-63
2022/05/28 19:18:16;;;;;;;1.98;1.42;;;17.50;54.00;;;;;;5087925;28;20072;-62
2022/05/28 19:20:44;;;;;;;4.85;1.00;;;17.50;54.70;;;;;;5072301;28;20088;-62
2022/05/28 19:23:11;;;;;;;1.40;1.20;;;17.50;54.30;;;;;;5070896;28;20031;-63
2022/05/28 19:28:23;;;;;;;1.85;1.20;;;17.50;54.40;;;;;;5086837;28;20031;-62
2022/05/28 19:30:51;;;;;;;3.72;1.27;;;17.50;54.50;;;;;;5088803;28;20024;-62
2022/05/28 19:33:23;;;;;;;5.00;1.38;;;17.50;54.60;;;;;;5087133;28;20035;-63
2022/05/28 19:35:49;;;;;;;5.03;2.45;;;17.50;54.70;;;;;;5089343;28;20012;-62
2022/05/28 19:38:15;;;;;;;2.22;1.10;;;17.50;54.80;;;;;;5088341;28;20028;-62
2022/05/28 19:40:45;;;;;;;3.33;1.40;;;17.50;54.90;;;;;;5088925;28;20434;-62
2022/05/28 19:43:11;;;;;;;5.45;1.88;;;17.50;55.00;;;;;;5088670;28;20413;-62
2022/05/28 19:45:57;;;;;;;4.55;1.27;;;17.50;55.10;;;;;;5089168;28;20110;-62
2022/05/28 19:48:25;;;;;;;6.18;1.67;;;17.50;55.30;;;;;;5088449;28;20077;-62
2022/05/28 19:50:51;;;;;;;9.10;1.65;;;17.50;55.30;;;;;;5089588;28;20566;-62
2022/05/28 19:53:17;;;;;;;2.72;1.10;;;17.50;55.30;;;;;;5088659;28;20035;-62
2022/05/28 19:55:43;;;;;;;4.15;1.02;;;17.50;56.00;;;;;;5088419;28;20107;-62
2022/05/28 19:58:10;;;;;;;3.10;1.00;;;17.50;55.50;;;;;;5088870;28;20064;-62
2022/05/28 20:00:39;;;;;;;2.50;1.23;;;17.50;55.60;;;;;;5071332;28;20481;-62
2022/05/28 20:03:06;;;;;;;2.67;1.40;;;17.50;55.70;;;;;;5089136;28;20771;-62
2022/05/28 20:05:32;;;;;;;1.58;1.38;;;17.50;55.70;;;;;;5089576;28;20794;-62
2022/05/28 20:07:58;;;;;;;2.05;1.40;;;17.50;55.80;;;;;;5087787;28;20313;-60
2022/05/28 20:10:27;;;;;;;2.90;1.48;;;17.50;55.90;;;;;;5089611;28;20096;-61
2022/05/28 20:12:53;;;;;;;7.13;1.40;;;17.40;56.10;;;;;;5089080;28;20020;-62
2022/05/28 20:15:22;;;;;;;5.38;1.58;;;17.40;56.10;;;;;;5089419;28;20024;-62
2022/05/28 20:18:05;;;;;;;5.00;1.20;;;17.40;56.10;;;;;;5089059;28;20043;-61
2022/05/28 20:20:35;;;;;;;3.40;1.17;;;17.40;56.20;;;;;;5093797;28;20039;-61
2022/05/28 20:23:07;;;;;;;1.73;0.98;;;17.40;56.30;;;;;;5093064;28;20035;-61
2022/05/28 20:25:37;;;;;;;2.63;1.08;;;17.40;56.30;;;;;;5075144;28;20282;-61
2022/05/28 20:28:06;;;;;;;2.83;1.20;;;17.40;56.40;;;;;;5092514;28;20019;-61
2022/05/28 20:30:33;;;;;;;3.88;1.48;;;17.40;56.50;;;;;;5093057;28;20024;-61
2022/05/28 20:32:59;;;;;;;3.90;1.42;;;17.40;57.20;;;;;;5075212;28;20024;-61
2022/05/28 20:35:28;;;;;;;7.68;1.70;;;17.40;56.70;;;;;;5093351;28;20031;-61
2022/05/28 20:37:55;;;;;;;3.05;1.40;;;17.40;57.40;;;;;;5091743;28;20032;-61
2022/05/28 20:40:21;;;;;;;2.17;1.30;;;17.40;56.80;;;;;;5090828;28;20115;-62
2022/05/28 20:42:47;;;;;;;2.92;1.17;;;17.40;56.90;;;;;;5073458;28;20449;-61
2022/05/28 20:45:13;;;;;;;3.42;1.50;;;17.40;56.90;;;;;;5091319;28;20117;-61
2022/05/28 20:47:43;;;;;;;4.40;1.20;;;17.40;56.90;;;;;;5091316;28;20051;-61
2022/05/28 20:50:30;;;;;;;14.05;1.98;;;17.30;56.90;;;;;;5072733;28;20224;-61
2022/05/28 20:52:56;;;;;;;9.68;1.60;;;17.40;57.10;;;;;;5090424;28;20081;-62
2022/05/28 20:55:23;;;;;;;2.80;1.58;;;17.40;57.10;;;;;;5091548;28;20031;-61
2022/05/28 20:57:50;;;;;;;3.40;1.65;;;17.30;57.10;;;;;;5092382;28;20089;-61
2022/05/28 21:00:17;;;;;;;9.23;1.73;;;17.30;57.20;;;;;;5091802;28;20059;-61
2022/05/28 21:02:44;;;;;;;7.38;1.50;;;17.40;57.20;;;;;;5092600;28;20024;-61
2022/05/28 21:05:12;;;;;;;5.85;1.40;;;17.30;57.30;;;;;;5074236;28;20028;-61
2022/05/28 21:07:38;;;;;;;3.20;1.40;;;17.30;57.40;;;;;;5090970;28;20142;-61
2022/05/28 21:10:06;;;;;;;3.65;1.30;;;17.30;57.40;;;;;;5092014;28;20497;-61
2022/05/28 21:12:32;;;;;;;2.92;1.45;;;17.30;57.50;;;;;;5092397;28;20043;-61
2022/05/28 21:14:58;;;;;;;3.13;1.60;;;17.30;57.50;;;;;;5074103;28;20553;-61
2022/05/28 21:17:25;;;;;;;3.72;1.55;;;17.30;57.50;;;;;;5092142;28;20024;-62
2022/05/28 21:19:52;;;;;;;4.60;2.05;;;17.30;57.60;;;;;;5091497;28;20441;-61
2022/05/28 21:22:18;;;;;;;5.53;1.95;;;17.30;57.70;;;;;;5074353;28;20376;-61
2022/05/28 21:24:45;;;;;;;4.53;1.90;;;17.30;57.80;;;;;;5091431;28;20089;-61
2022/05/28 21:29:57;;;;;;;2.90;1.65;;;17.30;57.90;;;;;;5090477;28;20107;-62
2022/05/28 21:32:33;;;;;;;4.47;1.75;;;17.30;58.00;;;;;;5092056;28;20028;-61
2022/05/28 21:35:17;;;;;;;3.75;1.73;;;17.20;58.00;;;;;;5091778;28;20069;-61
2022/05/28 21:37:43;;;;;;;3.28;1.80;;;17.30;58.20;;;;;;5091201;28;20040;-61
2022/05/28 21:40:10;;;;;;;7.95;1.40;;;17.20;58.10;;;;;;5090315;28;20546;-62
2022/05/28 21:42:35;;;;;;;1.75;1.33;;;17.20;58.10;;;;;;5092503;28;20027;-62
2022/05/28 21:45:01;;;;;;;2.45;1.63;;;17.30;58.20;;;;;;5091773;28;20020;-62
2022/05/28 21:47:27;;;;;;;4.35;1.33;;;17.20;58.20;;;;;;5091767;28;20493;-63
2022/05/28 21:49:55;;;;;;;5.80;1.80;;;17.20;58.30;;;;;;5073300;28;20485;-61
2022/05/28 21:52:22;;;;;;;5.40;1.73;;;17.20;58.30;;;;;;5091392;28;20477;-62
2022/05/28 21:54:51;;;;;;;6.13;1.88;;;17.20;58.60;;;;;;5090656;28;20028;-61
2022/05/28 21:57:16;;;;;;;3.70;1.88;;;17.20;58.40;;;;;;5091357;28;20060;-61
2022/05/28 21:59:42;;;;;;;3.03;1.45;;;17.20;58.50;;;;;;5090659;28;20448;-61
2022/05/28 22:02:08;;;;;;;7.22;1.85;;;17.20;58.50;;;;;;5091103;28;20378;-61
2022/05/28 22:04:39;;;;;;;3.30;1.70;;;17.20;58.60;;;;;;5091515;28;20054;-61
2022/05/28 22:07:04;;;;;;;;;;;17.20;58.60;;;;;;5091447;28;20028;-62
2022/05/28 22:09:30;;;;;;;3.13;1.58;;;17.20;58.70;;;;;;5089563;28;20002;-61
2022/05/28 22:11:56;;;;;;;6.15;1.55;;;17.20;58.70;;;;;;5073629;28;20179;-62
2022/05/28 22:14:22;;;;;;;8.15;1.50;;;17.20;58.80;;;;;;5091115;28;20443;-61
2022/05/28 22:16:47;;;;;;;6.57;1.73;;;17.20;59.00;;;;;;5091551;28;20067;-61
2022/05/28 22:19:17;;;;;;;4.03;1.50;;;17.20;58.90;;;;;;5090469;28;20428;-61
2022/05/28 22:21:44;;;;;;;4.85;1.75;;;17.20;59.00;;;;;;5091202;28;20038;-61
2022/05/28 22:24:10;;;;;;;4.32;1.67;;;17.20;59.00;;;;;;5090048;28;20035;-61
2022/05/28 22:26:36;;;;;;;5.50;1.67;;;17.20;59.00;;;;;;5091158;28;20032;-61
2022/05/28 22:29:03;;;;;;;7.45;1.48;;;17.20;59.60;;;;;;5090406;28;20374;-61
2022/05/28 22:31:29;;;;;;;4.13;1.42;;;17.10;59.10;;;;;;5090780;28;20530;-61
2022/05/28 22:33:59;;;;;;;4.70;2.10;;;17.20;59.20;;;;;;5073282;28;20496;-62
2022/05/28 22:36:26;;;;;;;4.22;1.77;;;17.10;59.20;;;;;;5072496;28;20051;-61
2022/05/28 22:38:52;;;;;;;4.32;1.88;;;17.10;59.30;;;;;;5089197;28;20035;-61
2022/05/28 22:41:18;;;;;;;6.50;1.98;;;17.10;59.30;;;;;;5090119;28;20349;-62
2022/05/28 22:43:44;;;;;;;6.45;1.75;;;17.10;59.30;;;;;;5072119;28;20020;-62
2022/05/28 22:46:12;;;;;;;3.58;1.65;;;17.10;59.40;;;;;;5090189;28;20020;-62
2022/05/28 22:48:39;;;;;;;6.70;1.40;;;17.10;59.60;;;;;;5090478;28;20034;-62
2022/05/28 22:51:08;;;;;;;3.38;1.88;;;17.10;59.50;;;;;;5090590;28;20039;-62
2022/05/28 22:53:36;;;;;;;4.57;1.70;;;17.10;59.50;;;;;;5089873;28;20028;-62
2022/05/28 22:56:08;;;;;;;4.60;1.90;;;17.10;59.60;;;;;;5090520;28;20020;-61
2022/05/28 22:58:37;;;;;;;3.17;1.55;;;17.10;59.60;;;;;;5090428;28;20518;-63
2022/05/28 23:01:06;;;;;;;6.10;1.60;;;17.10;59.70;;;;;;5072217;28;20397;-63